Time;durP1;ratioP1;P1;durP2;ratioP2;P2;SDS_P1;SDS_P2;PMS_P1;PMS_P2;Temp;Humidity;BMP_temperature;BMP_pressure;BME280_temperature;BME280_humidity;BME280_pressure;Samples;Min_cycle;Max_cycle;Signal;HPM_P1;HPM_P2
2022/12/28 00:03:50;;;;;;;;;;;;;;;;;;8450413;27;27971;-78
2022/12/28 00:07:50;;;;;;;;;;;;;;;;;;8448963;27;27679;-79
2022/12/28 00:11:50;;;;;;;;;;;;;;;;;;8448341;27;27886;-80
2022/12/28 00:15:50;;;;;;;;;;;;;;;;;;8448789;27;27441;-81
2022/12/28 00:19:51;;;;;;;;;;;;;;;;;;8425554;27;28496;-81
2022/12/28 00:23:51;;;;;;;;;;;;;;;;;;8457692;27;27260;-80
2022/12/28 00:27:51;;;;;;;;;;;;;;;;;;8436154;27;28684;-79
2022/12/28 00:31:51;;;;;;;;;;;;;;;;;;8451437;27;28128;-78
2022/12/28 00:35:51;;;;;;;;;;;;;;;;;;8450253;27;28467;-78
2022/12/28 00:39:51;;;;;;;;;;;;;;;;;;8438947;27;29589;-78
2022/12/28 00:43:51;;;;;;;;;;;;;;;;;;8433587;27;28826;-78
2022/12/28 00:47:51;;;;;;;;;;;;;;;;;;8436602;27;28566;-79
2022/12/28 00:51:51;;;;;;;;;;;;;;;;;;8456412;27;27645;-78
2022/12/28 00:55:51;;;;;;;;;;;;;;;;;;8460634;27;27342;-78
2022/12/28 00:59:51;;;;;;;;;;;;;;;;;;8433733;27;28588;-79
2022/12/28 01:03:51;;;;;;;;;;;;;;;;;;8446576;27;27640;-79
2022/12/28 01:07:51;;;;;;;;;;;;;;;;;;8457217;27;27122;-77
2022/12/28 01:11:52;;;;;;;;;;;;;;;;;;8432227;27;29065;-78
2022/12/28 01:15:52;;;;;;;;;;;;;;;;;;8440488;27;28818;-77
2022/12/28 01:19:52;;;;;;;;;;;;;;;;;;8457160;27;28240;-77
2022/12/28 01:23:52;;;;;;;;;;;;;;;;;;8453615;27;27906;-78
2022/12/28 01:27:52;;;;;;;;;;;;;;;;;;8440314;27;28511;-78
2022/12/28 01:31:52;;;;;;;;;;;;;;;;;;8451716;27;27341;-77
2022/12/28 01:35:52;;;;;;;;;;;;;;;;;;8458291;27;27640;-79
2022/12/28 01:39:52;;;;;;;;;;;;;;;;;;8459421;27;28054;-79
2022/12/28 01:43:52;;;;;;;;;;;;;;;;;;8454158;27;27328;-79
2022/12/28 01:47:52;;;;;;;;;;;;;;;;;;8459127;27;27809;-79
2022/12/28 01:51:52;;;;;;;;;;;;;;;;;;8454850;27;27320;-79
2022/12/28 01:55:52;;;;;;;;;;;;;;;;;;8453999;27;27754;-77
2022/12/28 01:59:53;;;;;;;;;;;;;;;;;;8438054;27;28376;-77
2022/12/28 02:03:53;;;;;;;;;;;;;;;;;;8451708;27;27536;-80
2022/12/28 02:07:53;;;;;;;;;;;;;;;;;;8439900;27;28692;-80
2022/12/28 02:11:53;;;;;;;;;;;;;;;;;;8432220;27;28774;-81
2022/12/28 02:15:53;;;;;;;;;;;;;;;;;;8457663;27;27504;-81
2022/12/28 02:19:53;;;;;;;;;;;;;;;;;;8457501;27;27894;-80
2022/12/28 02:23:53;;;;;;;;;;;;;;;;;;8450307;27;27684;-79
2022/12/28 02:27:53;;;;;;;;;;;;;;;;;;8436964;27;28754;-79
2022/12/28 02:31:54;;;;;;;;;;;;;;;;;;8449209;27;27829;-80
2022/12/28 02:35:54;;;;;;;;;;;;;;;;;;8456443;27;27962;-80
2022/12/28 02:39:54;;;;;;;;;;;;;;;;;;8434808;27;28800;-78
2022/12/28 02:43:54;;;;;;;;;;;;;;;;;;8428466;27;28620;-78
2022/12/28 02:52:12;;;;;;;;;;;;;;;;;;8450175;27;27402;-79
2022/12/28 02:56:13;;;;;;;;;;;;;;;;;;8456969;27;27485;-79
2022/12/28 03:00:13;;;;;;;;;;;;;;;;;;8436946;27;28640;-80
2022/12/28 03:04:13;;;;;;;;;;;;;;;;;;8449752;27;28765;-78
2022/12/28 03:08:19;;;;;;;;;;;;;;;;;;8453297;27;28107;-79
2022/12/28 03:12:19;;;;;;;;;;;;;;;;;;8445078;27;28230;-80
2022/12/28 03:16:19;;;;;;;;;;;;;;;;;;8452725;27;27293;-78
2022/12/28 03:33:16;;;;;;;;;;;;;;;;;;8454729;27;27279;-79
2022/12/28 03:37:16;;;;;;;;;;;;;;;;;;8452646;27;27931;-80
2022/12/28 03:41:16;;;;;;;;;;;;;;;;;;8454962;27;27453;-78
2022/12/28 03:45:16;;;;;;;;;;;;;;;;;;8430030;27;28594;-80
2022/12/28 03:49:16;;;;;;;;;;;;;;;;;;8453473;27;27206;-77
2022/12/28 03:53:17;;;;;;;;;;;;;;;;;;8448710;27;27406;-77
2022/12/28 03:57:18;;;;;;;;;;;;;;;;;;8455105;27;27450;-76
2022/12/28 04:01:18;;;;;;;;;;;;;;;;;;8448195;27;27901;-78
2022/12/28 04:05:20;;;;;;;;;;;;;;;;;;8441690;27;47742;-81
2022/12/28 04:09:21;;;;;;;;;;;;;;;;;;8445842;27;27316;-78
2022/12/28 04:13:21;;;;;;;;;;;;;;;;;;8427135;27;28537;-79
2022/12/28 04:17:21;;;;;;;;;;;;;;;;;;8448506;27;28006;-77
2022/12/28 04:21:21;;;;;;;;;;;;;;;;;;8435046;27;29735;-78
2022/12/28 04:25:21;;;;;;;;;;;;;;;;;;8448480;27;27520;-79
2022/12/28 04:29:21;;;;;;;;;;;;;;;;;;8434895;27;28595;-80
2022/12/28 04:33:21;;;;;;;;;;;;;;;;;;8446096;27;27234;-79
2022/12/28 04:37:21;;;;;;;;;;;;;;;;;;8455156;27;27792;-79
2022/12/28 04:41:21;;;;;;;;;;;;;;;;;;8446438;27;27455;-79
2022/12/28 04:45:21;;;;;;;;;;;;;;;;;;8446571;27;27224;-80
2022/12/28 04:49:22;;;;;;;;;;;;;;;;;;8449012;27;27645;-78
2022/12/28 04:53:22;;;;;;;;;;;;;;;;;;8442573;27;27543;-80
2022/12/28 04:57:22;;;;;;;;;;;;;;;;;;8451184;27;27902;-79
2022/12/28 05:01:22;;;;;;;;;;;;;;;;;;8451048;27;27694;-79
2022/12/28 05:05:22;;;;;;;;;;;;;;;;;;8446546;27;27776;-78
2022/12/28 05:09:22;;;;;;;;;;;;;;;;;;8437402;27;28621;-77
2022/12/28 05:13:22;;;;;;;;;;;;;;;;;;8428972;27;28296;-79
2022/12/28 05:17:22;;;;;;;;;;;;;;;;;;8444459;27;28237;-78
2022/12/28 05:21:22;;;;;;;;;;;;;;;;;;8447690;27;27730;-80
2022/12/28 05:25:22;;;;;;;;;;;;;;;;;;8448540;27;27355;-79
2022/12/28 05:29:22;;;;;;;;;;;;;;;;;;8430367;27;30001;-79
2022/12/28 05:33:22;;;;;;;;;;;;;;;;;;8459346;27;28707;-79
2022/12/28 05:37:23;;;;;;;;;;;;;;;;;;8461486;27;28616;-79
2022/12/28 05:41:23;;;;;;;;;;;;;;;;;;8457235;27;28654;-77
2022/12/28 05:45:23;;;;;;;;;;;;;;;;;;8463750;27;27450;-77
2022/12/28 05:49:23;;;;;;;;;;;;;;;;;;8452882;27;27722;-78
2022/12/28 05:53:23;;;;;;;;;;;;;;;;;;8449848;27;27863;-79
2022/12/28 05:57:23;;;;;;;;;;;;;;;;;;8457588;27;27368;-78
2022/12/28 06:01:23;;;;;;;;;;;;;;;;;;8458914;27;27490;-78
2022/12/28 06:05:23;;;;;;;;;;;;;;;;;;8439335;27;28958;-80
2022/12/28 06:09:23;;;;;;;;;;;;;;;;;;8455797;27;27856;-78
2022/12/28 06:13:23;;;;;;;;;;;;;;;;;;8456257;27;27204;-79
2022/12/28 06:17:23;;;;;;;;;;;;;;;;;;8448679;27;27892;-79
2022/12/28 06:21:23;;;;;;;;;;;;;;;;;;8431519;27;28762;-76
2022/12/28 06:25:24;;;;;;;;;;;;;;;;;;8456507;27;27446;-78
2022/12/28 06:29:24;;;;;;;;;;;;;;;;;;8459387;27;28493;-78
2022/12/28 06:33:24;;;;;;;;;;;;;;;;;;8456977;27;27823;-79
2022/12/28 06:37:24;;;;;;;;;;;;;;;;;;8456438;27;28652;-77
2022/12/28 06:41:24;;;;;;;;;;;;;;;;;;8454446;27;27686;-79
2022/12/28 06:45:24;;;;;;;;;;;;;;;;;;8456543;27;27599;-79
2022/12/28 06:49:24;;;;;;;;;;;;;;;;;;8443594;27;28759;-78
2022/12/28 06:53:24;;;;;;;;;;;;;;;;;;8454115;27;27612;-79
2022/12/28 06:57:24;;;;;;;;;;;;;;;;;;8460492;27;27200;-79
2022/12/28 07:01:24;;;;;;;;;;;;;;;;;;8457162;27;27392;-77
2022/12/28 07:05:24;;;;;;;;;;;;;;;;;;8448899;27;27985;-78
2022/12/28 07:09:25;;;;;;;;;;;;;;;;;;8448812;27;27525;-79
2022/12/28 07:13:25;;;;;;;;;;;;;;;;;;8455021;27;28216;-78
2022/12/28 07:17:25;;;;;;;;;;;;;;;;;;8452008;27;27366;-80
2022/12/28 07:21:25;;;;;;;;;;;;;;;;;;8422909;27;28587;-81
2022/12/28 07:25:25;;;;;;;;;;;;;;;;;;8455544;27;27529;-78
2022/12/28 07:29:25;;;;;;;;;;;;;;;;;;8458263;27;28436;-78
2022/12/28 07:33:25;;;;;;;;;;;;;;;;;;8454558;27;27439;-79
2022/12/28 07:37:25;;;;;;;;;;;;;;;;;;8454814;27;27588;-78
2022/12/28 07:41:26;;;;;;;;;;;;;;;;;;8436004;27;28635;-80
2022/12/28 07:45:26;;;;;;;;;;;;;;;;;;8440348;27;28292;-77
2022/12/28 07:49:26;;;;;;;;;;;;;;;;;;8455858;27;27292;-78
2022/12/28 07:53:26;;;;;;;;;;;;;;;;;;8435670;27;29182;-79
2022/12/28 07:57:27;;;;;;;;;;;;;;;;;;8431932;27;28617;-78
2022/12/28 08:01:27;;;;;;;;;;;;;;;;;;8451564;27;27581;-80
2022/12/28 08:05:27;;;;;;;;;;;;;;;;;;8429375;27;28470;-80
2022/12/28 08:09:27;;;;;;;;;;;;;;;;;;8455975;27;27373;-81
2022/12/28 08:13:27;;;;;;;;;;;;;;;;;;8430619;27;29902;-80
2022/12/28 08:17:27;;;;;;;;;;;;;;;;;;8450366;27;27374;-79
2022/12/28 08:21:27;;;;;;;;;;;;;;;;;;8445045;27;27945;-79
2022/12/28 08:25:27;;;;;;;;;;;;;;;;;;8449480;27;27513;-78
2022/12/28 08:29:27;;;;;;;;;;;;;;;;;;8452843;27;27889;-78
2022/12/28 08:33:27;;;;;;;;;;;;;;;;;;8451304;27;27429;-77
2022/12/28 08:37:27;;;;;;;;;;;;;;;;;;8436267;27;28684;-79
2022/12/28 08:41:28;;;;;;;;;;;;;;;;;;8451227;27;27456;-79
2022/12/28 08:45:28;;;;;;;;;;;;;;;;;;8459415;27;28134;-80
2022/12/28 08:49:28;;;;;;;;;;;;;;;;;;8456395;27;27633;-80
2022/12/28 08:53:28;;;;;;;;;;;;;;;;;;8447449;27;27413;-80
2022/12/28 08:57:28;;;;;;;;;;;;;;;;;;8449998;27;27357;-81
2022/12/28 09:01:28;;;;;;;;;;;;;;;;;;8449130;27;27625;-78
2022/12/28 09:05:28;;;;;;;;;;;;;;;;;;8457404;27;27195;-78
2022/12/28 09:09:28;;;;;;;;;;;;;;;;;;8463275;27;27747;-78
2022/12/28 09:13:28;;;;;;;;;;;;;;;;;;8457531;27;28282;-77
2022/12/28 09:17:28;;;;;;;;;;;;;;;;;;8456352;27;27405;-77
2022/12/28 09:21:28;;;;;;;;;;;;;;;;;;8448602;27;28398;-78
2022/12/28 09:25:28;;;;;;;;;;;;;;;;;;8457458;27;27684;-78
2022/12/28 09:29:29;;;;;;;;;;;;;;;;;;8457831;27;28191;-78
2022/12/28 09:37:47;;;;;;;;;;;;;;;;;;8453532;27;28170;-78
2022/12/28 09:41:48;;;;;;;;;;;;;;;;;;8436296;27;28196;-78
2022/12/28 09:45:48;;;;;;;;;;;;;;;;;;8455785;27;27419;-78
2022/12/28 09:49:48;;;;;;;;;;;;;;;;;;8456641;27;27408;-78
2022/12/28 09:53:48;;;;;;;;;;;;;;;;;;8458386;27;27275;-78
2022/12/28 09:57:48;;;;;;;;;;;;;;;;;;8456710;27;27336;-77
2022/12/28 10:01:48;;;;;;;;;;;;;;;;;;8444773;27;28787;-78
2022/12/28 10:05:48;;;;;;;;;;;;;;;;;;8441361;27;28835;-81
2022/12/28 10:09:48;;;;;;;;;;;;;;;;;;8456721;27;27850;-79
2022/12/28 10:13:48;;;;;;;;;;;;;;;;;;8454248;27;27409;-83
2022/12/28 10:17:48;;;;;;;;;;;;;;;;;;8453582;27;28938;-80
2022/12/28 10:21:48;;;;;;;;;;;;;;;;;;8456029;27;27395;-81
2022/12/28 10:25:48;;;;;;;;;;;;;;;;;;8438390;27;28460;-81
2022/12/28 10:29:49;;;;;;;;;;;;;;;;;;8457396;27;28457;-79
2022/12/28 10:33:49;;;;;;;;;;;;;;;;;;8456127;27;28335;-78
2022/12/28 10:37:49;;;;;;;;;;;;;;;;;;8446483;27;28957;-77
2022/12/28 10:41:50;;;;;;;;;;;;;;;;;;8459639;27;27699;-78
2022/12/28 10:45:50;;;;;;;;;;;;;;;;;;8441479;27;28909;-76
2022/12/28 10:49:50;;;;;;;;;;;;;;;;;;8456036;27;27562;-76
2022/12/28 10:53:50;;;;;;;;;;;;;;;;;;8450595;27;27353;-77
2022/12/28 10:57:50;;;;;;;;;;;;;;;;;;8455466;27;27364;-76
2022/12/28 11:01:50;;;;;;;;;;;;;;;;;;8433182;27;28551;-76
2022/12/28 11:05:50;;;;;;;;;;;;;;;;;;8454627;27;27635;-75
2022/12/28 11:09:50;;;;;;;;;;;;;;;;;;8456165;27;27838;-76
2022/12/28 11:13:50;;;;;;;;;;;;;;;;;;8450652;27;27734;-76
2022/12/28 11:17:50;;;;;;;;;;;;;;;;;;8446309;27;27573;-76
2022/12/28 11:21:51;;;;;;;;;;;;;;;;;;8453917;27;27388;-76
2022/12/28 11:25:51;;;;;;;;;;;;;;;;;;8455527;27;27504;-76
2022/12/28 11:29:51;;;;;;;;;;;;;;;;;;8454793;27;27293;-76
2022/12/28 11:33:51;;;;;;;;;;;;;;;;;;8454098;27;27989;-77
2022/12/28 11:37:51;;;;;;;;;;;;;;;;;;8451400;27;28133;-77
2022/12/28 11:41:51;;;;;;;;;;;;;;;;;;8460406;27;28690;-77
2022/12/28 11:45:51;;;;;;;;;;;;;;;;;;8455643;27;27003;-76
2022/12/28 11:49:52;;;;;;;;;;;;;;;;;;8433042;27;28709;-77
2022/12/28 11:53:53;;;;;;;;;;;;;;;;;;8436381;27;29084;-77
2022/12/28 11:57:53;;;;;;;;;;;;;;;;;;8455075;27;27558;-77
2022/12/28 12:01:53;;;;;;;;;;;;;;;;;;8460694;27;27372;-77
2022/12/28 12:05:53;;;;;;;;;;;;;;;;;;8451465;27;27959;-77
2022/12/28 12:09:53;;;;;;;;;;;;;;;;;;8456583;27;28387;-77
2022/12/28 12:13:53;;;;;;;;;;;;;;;;;;8456891;27;27314;-76
2022/12/28 12:17:53;;;;;;;;;;;;;;;;;;8453987;27;27395;-76
2022/12/28 12:21:53;;;;;;;;;;;;;;;;;;8437931;27;29640;-76
2022/12/28 12:25:53;;;;;;;;;;;;;;;;;;8433326;27;27194;-76
2022/12/28 12:29:53;;;;;;;;;;;;;;;;;;8433090;27;28833;-76
2022/12/28 12:33:54;;;;;;;;;;;;;;;;;;8452176;27;27233;-77
2022/12/28 12:37:54;;;;;;;;;;;;;;;;;;8453475;27;27592;-77
2022/12/28 12:41:55;;;;;;;;;;;;;;;;;;8448356;27;27747;-77
2022/12/28 12:45:55;;;;;;;;;;;;;;;;;;8455434;27;27429;-77
2022/12/28 12:49:55;;;;;;;;;;;;;;;;;;8454389;27;27959;-78
2022/12/28 12:53:55;;;;;;;;;;;;;;;;;;8456892;27;27171;-76
2022/12/28 12:57:57;;;;;;;;;;;;;;;;;;8458252;27;27353;-76
2022/12/28 13:01:57;;;;;;;;;;;;;;;;;;8455507;27;27631;-75
2022/12/28 13:05:57;;;;;;;;;;;;;;;;;;8448725;27;27935;-77
2022/12/28 13:09:57;;;;;;;;;;;;;;;;;;8426408;27;28761;-77
2022/12/28 13:13:57;;;;;;;;;;;;;;;;;;8446911;27;28902;-75
2022/12/28 13:17:57;;;;;;;;;;;;;;;;;;8453703;27;27497;-78
2022/12/28 13:21:57;;;;;;;;;;;;;;;;;;8435914;27;29083;-77
2022/12/28 13:25:58;;;;;;;;;;;;;;;;;;8446845;27;27576;-77
2022/12/28 13:29:58;;;;;;;;;;;;;;;;;;8436253;27;28680;-77
2022/12/28 13:33:58;;;;;;;;;;;;;;;;;;8451983;27;27484;-77
2022/12/28 13:37:58;;;;;;;;;;;;;;;;;;8446694;27;27738;-77
2022/12/28 13:41:58;;;;;;;;;;;;;;;;;;8445464;27;27672;-77
2022/12/28 13:45:58;;;;;;;;;;;;;;;;;;8435257;27;28374;-76
2022/12/28 13:49:58;;;;;;;;;;;;;;;;;;8456634;27;27814;-77
2022/12/28 13:53:59;;;;;;;;;;;;;;;;;;8460989;27;27235;-75
2022/12/28 13:57:59;;;;;;;;;;;;;;;;;;8461604;27;27267;-77
2022/12/28 14:01:59;;;;;;;;;;;;;;;;;;8439351;27;28350;-76
2022/12/28 14:06:00;;;;;;;;;;;;;;;;;;8457349;27;27221;-77
2022/12/28 14:10:00;;;;;;;;;;;;;;;;;;8442370;27;28797;-77
2022/12/28 14:14:01;;;;;;;;;;;;;;;;;;8453399;27;28301;-75
2022/12/28 14:18:01;;;;;;;;;;;;;;;;;;8451359;27;27390;-76
2022/12/28 14:22:01;;;;;;;;;;;;;;;;;;8428524;27;29428;-75
2022/12/28 14:26:01;;;;;;;;;;;;;;;;;;8453040;27;27409;-77
2022/12/28 14:30:01;;;;;;;;;;;;;;;;;;8454774;27;28089;-76
2022/12/28 14:34:01;;;;;;;;;;;;;;;;;;8432745;27;28916;-75
2022/12/28 14:38:01;;;;;;;;;;;;;;;;;;8460506;27;28191;-76
2022/12/28 14:42:01;;;;;;;;;;;;;;;;;;8456597;27;27133;-76
2022/12/28 14:46:01;;;;;;;;;;;;;;;;;;8452281;27;27278;-77
2022/12/28 14:50:01;;;;;;;;;;;;;;;;;;8457422;27;27381;-75
2022/12/28 14:54:01;;;;;;;;;;;;;;;;;;8438530;27;28867;-76
2022/12/28 14:58:02;;;;;;;;;;;;;;;;;;8450188;27;28175;-76
2022/12/28 15:02:02;;;;;;;;;;;;;;;;;;8449940;27;27300;-77
2022/12/28 15:06:02;;;;;;;;;;;;;;;;;;8454341;27;27959;-75
2022/12/28 15:10:02;;;;;;;;;;;;;;;;;;8452008;27;27420;-76
2022/12/28 15:14:02;;;;;;;;;;;;;;;;;;8433996;27;28745;-75
2022/12/28 15:18:02;;;;;;;;;;;;;;;;;;8449762;27;27227;-76
2022/12/28 15:22:02;;;;;;;;;;;;;;;;;;8449636;27;27429;-77
2022/12/28 15:26:02;;;;;;;;;;;;;;;;;;8438519;27;28510;-76
2022/12/28 15:30:02;;;;;;;;;;;;;;;;;;8456993;27;28412;-76
2022/12/28 15:34:03;;;;;;;;;;;;;;;;;;8440166;27;28687;-76
2022/12/28 15:38:03;;;;;;;;;;;;;;;;;;8437671;27;28918;-75
2022/12/28 15:42:03;;;;;;;;;;;;;;;;;;8453714;27;27882;-76
2022/12/28 15:46:03;;;;;;;;;;;;;;;;;;8445657;27;28593;-76
2022/12/28 15:50:03;;;;;;;;;;;;;;;;;;8445254;27;27767;-77
2022/12/28 15:54:03;;;;;;;;;;;;;;;;;;8424138;27;28518;-77
2022/12/28 15:58:03;;;;;;;;;;;;;;;;;;8444787;27;28183;-76
2022/12/28 16:02:03;;;;;;;;;;;;;;;;;;8433299;27;28457;-77
2022/12/28 16:06:04;;;;;;;;;;;;;;;;;;8454300;27;27470;-77
2022/12/28 16:10:04;;;;;;;;;;;;;;;;;;8449521;27;28595;-76
2022/12/28 16:14:04;;;;;;;;;;;;;;;;;;8448709;27;27515;-76
2022/12/28 16:18:04;;;;;;;;;;;;;;;;;;8449936;27;28440;-77
2022/12/28 16:22:04;;;;;;;;;;;;;;;;;;8425321;27;28417;-75
2022/12/28 16:26:05;;;;;;;;;;;;;;;;;;8450482;27;28119;-75
2022/12/28 16:30:05;;;;;;;;;;;;;;;;;;8449732;27;27286;-77
2022/12/28 16:34:05;;;;;;;;;;;;;;;;;;8430544;27;28287;-76
2022/12/28 16:38:05;;;;;;;;;;;;;;;;;;8448649;27;27877;-77
2022/12/28 16:42:05;;;;;;;;;;;;;;;;;;8447063;27;28080;-76
2022/12/28 16:46:05;;;;;;;;;;;;;;;;;;8432726;27;28265;-77
2022/12/28 16:50:05;;;;;;;;;;;;;;;;;;8448045;27;27657;-75
2022/12/28 16:54:06;;;;;;;;;;;;;;;;;;8446851;27;27969;-77
2022/12/28 16:58:06;;;;;;;;;;;;;;;;;;8434593;27;28753;-77
2022/12/28 17:02:07;;;;;;;;;;;;;;;;;;8453518;27;27627;-77
2022/12/28 17:06:07;;;;;;;;;;;;;;;;;;8454432;27;27402;-77
2022/12/28 17:10:07;;;;;;;;;;;;;;;;;;8425798;27;28941;-77
2022/12/28 17:14:07;;;;;;;;;;;;;;;;;;8426482;27;29131;-76
2022/12/28 17:18:08;;;;;;;;;;;;;;;;;;8449793;27;27575;-76
2022/12/28 17:22:09;;;;;;;;;;;;;;;;;;8447588;27;28098;-77
2022/12/28 17:26:09;;;;;;;;;;;;;;;;;;8450448;27;27975;-76
2022/12/28 17:30:09;;;;;;;;;;;;;;;;;;8436850;27;28419;-76
2022/12/28 17:34:09;;;;;;;;;;;;;;;;;;8453486;27;28193;-77
2022/12/28 17:38:09;;;;;;;;;;;;;;;;;;8449766;27;28291;-75
2022/12/28 17:42:10;;;;;;;;;;;;;;;;;;8437543;27;29872;-77
2022/12/28 17:46:10;;;;;;;;;;;;;;;;;;8457549;27;28238;-77
2022/12/28 17:50:10;;;;;;;;;;;;;;;;;;8458112;27;27684;-77
2022/12/28 17:54:10;;;;;;;;;;;;;;;;;;8428267;27;29813;-77
2022/12/28 17:58:10;;;;;;;;;;;;;;;;;;8436316;27;28550;-77
2022/12/28 18:02:11;;;;;;;;;;;;;;;;;;8451996;27;27219;-77
2022/12/28 18:06:11;;;;;;;;;;;;;;;;;;8430692;27;29477;-77
2022/12/28 18:10:11;;;;;;;;;;;;;;;;;;8460339;27;27695;-76
2022/12/28 18:14:11;;;;;;;;;;;;;;;;;;8437960;27;28791;-77
2022/12/28 18:18:12;;;;;;;;;;;;;;;;;;8439533;27;29312;-76
2022/12/28 18:22:12;;;;;;;;;;;;;;;;;;8437785;27;28638;-76
2022/12/28 18:26:14;;;;;;;;;;;;;;;;;;8457269;27;27844;-77
2022/12/28 18:30:15;;;;;;;;;;;;;;;;;;8460351;27;27518;-77
2022/12/28 18:34:15;;;;;;;;;;;;;;;;;;8457942;27;28258;-77
2022/12/28 18:38:15;;;;;;;;;;;;;;;;;;8450363;27;28172;-77
2022/12/28 18:42:18;;;;;;;;;;;;;;;;;;8460512;27;27706;-77
2022/12/28 18:46:18;;;;;;;;;;;;;;;;;;8443882;27;29668;-74
2022/12/28 18:50:18;;;;;;;;;;;;;;;;;;8461881;27;28338;-77
2022/12/28 18:54:18;;;;;;;;;;;;;;;;;;8431401;27;30073;-77
2022/12/28 18:58:18;;;;;;;;;;;;;;;;;;8431062;27;28795;-77
2022/12/28 19:02:18;;;;;;;;;;;;;;;;;;8458505;27;28172;-76
2022/12/28 19:06:18;;;;;;;;;;;;;;;;;;8441297;27;28541;-77
2022/12/28 19:10:20;;;;;;;;;;;;;;;;;;8452623;27;27380;-77
2022/12/28 19:14:20;;;;;;;;;;;;;;;;;;8457131;27;27286;-74
2022/12/28 19:18:20;;;;;;;;;;;;;;;;;;8438783;27;28590;-75
2022/12/28 19:22:20;;;;;;;;;;;;;;;;;;8447372;27;27366;-75
2022/12/28 19:26:20;;;;;;;;;;;;;;;;;;8454907;27;28268;-77
2022/12/28 19:30:20;;;;;;;;;;;;;;;;;;8439496;27;28330;-77
2022/12/28 19:34:20;;;;;;;;;;;;;;;;;;8450366;27;27753;-76
2022/12/28 19:38:20;;;;;;;;;;;;;;;;;;8440325;27;28519;-76
2022/12/28 19:42:20;;;;;;;;;;;;;;;;;;8440820;27;28681;-76
2022/12/28 19:46:21;;;;;;;;;;;;;;;;;;8451818;27;27561;-77
2022/12/28 19:50:22;;;;;;;;;;;;;;;;;;8454693;27;27512;-77
2022/12/28 19:54:22;;;;;;;;;;;;;;;;;;8454831;27;27591;-77
2022/12/28 19:58:24;;;;;;;;;;;;;;;;;;8448905;27;27322;-77
2022/12/28 20:02:24;;;;;;;;;;;;;;;;;;8448267;27;28473;-76
2022/12/28 20:06:27;;;;;;;;;;;;;;;;;;8456308;27;27333;-77
2022/12/28 20:10:28;;;;;;;;;;;;;;;;;;8427356;27;28720;-76
2022/12/28 20:14:28;;;;;;;;;;;;;;;;;;8454842;27;27487;-76
2022/12/28 20:18:29;;;;;;;;;;;;;;;;;;8446429;27;27604;-75
2022/12/28 20:22:29;;;;;;;;;;;;;;;;;;8432923;27;28700;-76
2022/12/28 20:26:29;;;;;;;;;;;;;;;;;;8455038;27;27779;-78
2022/12/28 20:30:29;;;;;;;;;;;;;;;;;;8452810;27;27526;-76
2022/12/28 20:34:29;;;;;;;;;;;;;;;;;;8432640;27;28811;-77
2022/12/28 20:38:29;;;;;;;;;;;;;;;;;;8453333;27;27311;-77
2022/12/28 20:46:48;;;;;;;;;;;;;;;;;;8453563;27;27323;-77
2022/12/28 20:50:48;;;;;;;;;;;;;;;;;;8459163;27;27151;-76
2022/12/28 20:54:48;;;;;;;;;;;;;;;;;;8459078;27;27515;-76
2022/12/28 20:58:48;;;;;;;;;;;;;;;;;;8438105;27;28212;-76
2022/12/28 21:02:48;;;;;;;;;;;;;;;;;;8439925;27;28474;-76
2022/12/28 21:06:48;;;;;;;;;;;;;;;;;;8444326;27;29067;-76
2022/12/28 21:10:48;;;;;;;;;;;;;;;;;;8442532;27;28868;-76
2022/12/28 21:14:48;;;;;;;;;;;;;;;;;;8456891;27;27749;-77
2022/12/28 21:18:49;;;;;;;;;;;;;;;;;;8454180;27;27948;-77
2022/12/28 21:22:49;;;;;;;;;;;;;;;;;;8441861;27;28598;-77
2022/12/28 21:26:49;;;;;;;;;;;;;;;;;;8457234;27;28109;-76
2022/12/28 21:30:49;;;;;;;;;;;;;;;;;;8458045;27;28252;-77
2022/12/28 21:34:49;;;;;;;;;;;;;;;;;;8438309;27;28538;-76
2022/12/28 21:38:49;;;;;;;;;;;;;;;;;;8454530;27;29831;-77
2022/12/28 21:42:49;;;;;;;;;;;;;;;;;;8457453;27;27398;-76
2022/12/28 21:46:50;;;;;;;;;;;;;;;;;;8461266;27;27327;-77
2022/12/28 21:50:50;;;;;;;;;;;;;;;;;;8461783;27;27458;-77
2022/12/28 21:54:50;;;;;;;;;;;;;;;;;;8462750;27;27283;-77
2022/12/28 21:58:50;;;;;;;;;;;;;;;;;;8458343;27;27600;-77
2022/12/28 22:07:09;;;;;;;;;;;;;;;;;;8458282;27;27968;-77
2022/12/28 22:19:48;;;;;;;;;;;;;;;;;;8457633;27;27632;-76
2022/12/28 22:23:48;;;;;;;;;;;;;;;;;;8450869;27;27461;-76
2022/12/28 22:27:48;;;;;;;;;;;;;;;;;;8455540;27;27279;-76
2022/12/28 22:31:48;;;;;;;;;;;;;;;;;;8458728;27;28208;-76
2022/12/28 22:35:48;;;;;;;;;;;;;;;;;;8462640;27;27334;-77
2022/12/28 22:39:48;;;;;;;;;;;;;;;;;;8439167;27;28511;-77
2022/12/28 22:43:49;;;;;;;;;;;;;;;;;;8459060;27;27608;-77
2022/12/28 22:47:49;;;;;;;;;;;;;;;;;;8449834;27;28229;-76
2022/12/28 22:51:49;;;;;;;;;;;;;;;;;;8460496;27;28406;-76
2022/12/28 22:55:49;;;;;;;;;;;;;;;;;;8453846;27;27501;-76
2022/12/28 22:59:49;;;;;;;;;;;;;;;;;;8462681;27;27773;-76
2022/12/28 23:03:50;;;;;;;;;;;;;;;;;;8454298;27;27218;-76
2022/12/28 23:07:50;;;;;;;;;;;;;;;;;;8453320;27;27573;-76
2022/12/28 23:11:51;;;;;;;;;;;;;;;;;;8457138;27;27641;-76
2022/12/28 23:15:51;;;;;;;;;;;;;;;;;;8433806;27;29207;-76
2022/12/28 23:28:28;;;;;;;;;;;;;;;;;;8451757;27;27435;-76
2022/12/28 23:32:28;;;;;;;;;;;;;;;;;;8459088;27;27829;-77
2022/12/28 23:36:29;;;;;;;;;;;;;;;;;;8457090;27;27293;-75
2022/12/28 23:40:29;;;;;;;;;;;;;;;;;;8459018;27;27367;-76
2022/12/28 23:44:29;;;;;;;;;;;;;;;;;;8458853;27;27428;-76
2022/12/28 23:48:29;;;;;;;;;;;;;;;;;;8457094;27;27430;-77
2022/12/28 23:52:29;;;;;;;;;;;;;;;;;;8443078;27;28546;-77
2022/12/28 23:56:29;;;;;;;;;;;;;;;;;;8457357;27;27358;-77
